createdAt,value
2022-09-09T00:02:02.121Z,99828.47
2022-09-09T00:05:16.400Z,99832.13
2022-09-09T00:08:21.943Z,99833.03
2022-09-09T00:11:31.460Z,99834.78
2022-09-09T00:14:39.513Z,99835.56
2022-09-09T00:17:45.497Z,99838.22
2022-09-09T00:20:52.345Z,99835.50
2022-09-09T00:23:55.671Z,99848.53
2022-09-09T00:27:03.268Z,99834.88
2022-09-09T00:30:15.858Z,99837.88
2022-09-09T00:33:23.212Z,99838.25
2022-09-09T00:36:30.116Z,99841.88
2022-09-09T00:39:36.124Z,99842.72
2022-09-09T00:42:43.984Z,99838.88
2022-09-09T00:46:08.417Z,99846.91
2022-09-09T00:49:17.250Z,99840.50
2022-09-09T00:52:25.011Z,99845.69
2022-09-09T00:55:30.656Z,99854.25
2022-09-09T00:58:35.006Z,99842.28
2022-09-09T01:01:38.071Z,99842.81
2022-09-09T01:04:40.870Z,99847.06
2022-09-09T01:07:47.262Z,99848.63
2022-09-09T01:10:52.056Z,99847.03
2022-09-09T01:14:01.149Z,99851.50
2022-09-09T01:17:06.623Z,99853.63
2022-09-09T01:20:14.642Z,99852.16
2022-09-09T01:23:29.237Z,99863.59
2022-09-09T01:26:34.562Z,99861.72
2022-09-09T01:29:38.100Z,99853.31
2022-09-09T01:32:43.639Z,99856.63
2022-09-09T01:35:51.856Z,99858.59
2022-09-09T01:38:54.974Z,99865.75
2022-09-09T01:41:59.188Z,99867.66
2022-09-09T01:45:01.973Z,99855.84
2022-09-09T01:48:05.010Z,99861.16
2022-09-09T01:51:07.717Z,99866.69
2022-09-09T01:54:10.573Z,99869.34
2022-09-09T01:57:18.828Z,99862.75
2022-09-09T02:00:21.769Z,99868.19
2022-09-09T02:03:27.490Z,99868.38
2022-09-09T02:06:34.451Z,99874.69
2022-09-09T02:09:39.690Z,99883.44
2022-09-09T02:12:46.692Z,99886.31
2022-09-09T02:15:54.229Z,99889.69
2022-09-09T02:19:00.297Z,99890.69
2022-09-09T02:22:03.420Z,99883.47
2022-09-09T02:25:07.719Z,99882.63
2022-09-09T02:28:14.124Z,99878.88
2022-09-09T02:31:19.782Z,99884.72
2022-09-09T02:34:24.754Z,99883.75
2022-09-09T02:37:31.386Z,99885.78
2022-09-09T02:40:34.172Z,99894.63
2022-09-09T02:43:38.276Z,99892.38
2022-09-09T02:47:00.744Z,99889.88
2022-09-09T02:50:07.995Z,99885.41
2022-09-09T02:53:14.046Z,99896.66
2022-09-09T02:56:18.134Z,99898.16
2022-09-09T02:59:23.137Z,99901.84
2022-09-09T03:02:26.455Z,99896.47
2022-09-09T03:05:29.282Z,99902.38
2022-09-09T03:08:32.077Z,99912.97
2022-09-09T03:11:34.962Z,99913.16
2022-09-09T03:14:39.361Z,99924.31
2022-09-09T03:17:42.206Z,99908.53
2022-09-09T03:20:44.956Z,99922.50
2022-09-09T03:23:47.775Z,99927.56
2022-09-09T03:26:51.604Z,99924.50
2022-09-09T03:29:55.701Z,99936.25
2022-09-09T03:32:58.891Z,99935.84
2022-09-09T03:36:01.629Z,99943.56
2022-09-09T03:39:05.075Z,99945.59
2022-09-09T03:42:08.037Z,99961.13
2022-09-09T03:45:12.690Z,99960.22
2022-09-09T03:48:15.568Z,99970.53
2022-09-09T03:51:19.450Z,99969.91
2022-09-09T03:54:22.693Z,99968.38
2022-09-09T03:57:25.410Z,99974.63
2022-09-09T04:00:30.212Z,99970.16
2022-09-09T04:03:33.429Z,99968.59
2022-09-09T04:06:36.144Z,99975.69
2022-09-09T04:09:38.961Z,99969.75
2022-09-09T04:12:41.794Z,99971.31
2022-09-09T04:15:46.167Z,99973.53
2022-09-09T04:18:49.592Z,99964.44
2022-09-09T04:21:52.368Z,99961.22
2022-09-09T04:24:55.149Z,99964.63
2022-09-09T04:27:58.367Z,99958.13
2022-09-09T04:31:07.128Z,99954.44
2022-09-09T04:34:10.175Z,99955.19
2022-09-09T04:37:13.025Z,99952.88
2022-09-09T04:40:16.389Z,99961.22
2022-09-09T04:43:20.023Z,99965.91
2022-09-09T04:46:24.897Z,99964.91
2022-09-09T04:49:28.009Z,99963.19
2022-09-09T04:52:31.037Z,99963.88
2022-09-09T04:55:34.300Z,99965.00
2022-09-09T04:58:37.366Z,99967.34
2022-09-09T05:01:41.977Z,99975.84
2022-09-09T05:04:45.232Z,99973.06
2022-09-09T05:07:49.334Z,99979.25
2022-09-09T05:10:52.241Z,99980.09
2022-09-09T05:13:55.503Z,99978.31
2022-09-09T05:17:00.018Z,99987.94
2022-09-09T05:20:07.655Z,99988.50
2022-09-09T05:23:14.491Z,99993.00
2022-09-09T05:26:19.779Z,99988.50
2022-09-09T05:29:22.617Z,99992.97
2022-09-09T05:32:27.009Z,99986.94
2022-09-09T05:35:29.742Z,99992.53
2022-09-09T05:38:33.515Z,99987.69
2022-09-09T05:41:37.041Z,99985.63
2022-09-09T05:44:39.846Z,99985.56
2022-09-09T05:47:44.196Z,100001.97
2022-09-09T05:50:55.314Z,99990.63
2022-09-09T05:53:59.807Z,100005.53
2022-09-09T05:57:03.662Z,100014.97
2022-09-09T06:00:06.866Z,100015.06
2022-09-09T06:03:12.004Z,100010.72
2022-09-09T06:06:16.502Z,100012.97
2022-09-09T06:09:19.273Z,100024.25
2022-09-09T06:12:22.612Z,100019.03
2022-09-09T06:15:25.356Z,100026.28
2022-09-09T06:18:30.626Z,100028.59
2022-09-09T06:21:34.868Z,100036.56
2022-09-09T06:24:37.580Z,100030.00
2022-09-09T06:27:40.387Z,100037.56
2022-09-09T06:30:43.141Z,100036.06
2022-09-09T06:33:47.331Z,100037.25
2022-09-09T06:36:50.453Z,100040.75
2022-09-09T06:39:53.411Z,100047.75
2022-09-09T06:42:56.247Z,100048.19
2022-09-09T06:45:59.972Z,100046.84
2022-09-09T06:49:04.132Z,100044.09
2022-09-09T06:52:07.511Z,100050.22
2022-09-09T06:55:10.419Z,100060.47
2022-09-09T06:58:15.540Z,100064.72
2022-09-09T07:01:19.918Z,100069.84
2022-09-09T07:04:24.290Z,100074.78
2022-09-09T07:07:28.034Z,100079.34
2022-09-09T07:10:30.771Z,100083.13
2022-09-09T07:13:33.526Z,100092.34
2022-09-09T07:16:38.011Z,100096.41
2022-09-09T07:19:42.336Z,100107.97
2022-09-09T07:22:45.079Z,100112.78
2022-09-09T07:25:48.528Z,100106.47
2022-09-09T07:28:51.315Z,100108.63
2022-09-09T07:31:54.064Z,100106.50
2022-09-09T07:34:59.136Z,100102.16
2022-09-09T07:38:02.813Z,100118.97
2022-09-09T07:41:07.289Z,100129.50
2022-09-09T07:44:11.886Z,100120.66
2022-09-09T07:47:14.680Z,100129.38
2022-09-09T07:50:18.870Z,100126.19
2022-09-09T07:53:22.262Z,100120.81
2022-09-09T07:56:25.070Z,100109.28
2022-09-09T07:59:29.757Z,100105.91
2022-09-09T08:02:32.499Z,100095.34
2022-09-09T08:05:36.922Z,100095.03
2022-09-09T08:08:42.258Z,100091.59
2022-09-09T08:11:45.142Z,100083.31
2022-09-09T08:14:47.890Z,100083.09
2022-09-09T08:17:50.617Z,100078.69
2022-09-09T08:20:54.770Z,100086.91
2022-09-09T08:23:58.356Z,100087.59
2022-09-09T08:27:01.212Z,100084.91
2022-09-09T08:30:04.193Z,100081.88
2022-09-09T08:33:07.055Z,100072.88
2022-09-09T08:36:12.918Z,100075.03
2022-09-09T08:39:16.786Z,100081.44
2022-09-09T08:42:26.628Z,100075.72
2022-09-09T08:45:35.932Z,100078.16
2022-09-09T08:48:57.154Z,100070.84
2022-09-09T08:52:02.436Z,100071.28
2022-09-09T08:55:13.493Z,100064.41
2022-09-09T08:58:18.129Z,100069.03
2022-09-09T09:01:37.610Z,100064.13
2022-09-09T09:04:53.630Z,100050.78
2022-09-09T09:08:03.782Z,100050.53
2022-09-09T09:11:07.045Z,100054.19
2022-09-09T09:14:13.211Z,100052.66
2022-09-09T09:17:17.481Z,100072.22
2022-09-09T09:20:23.127Z,100069.53
2022-09-09T09:23:29.659Z,100060.16
2022-09-09T09:26:33.616Z,100070.69
2022-09-09T09:29:50.543Z,100066.47
2022-09-09T09:33:02.338Z,100062.81
2022-09-09T09:36:09.409Z,100067.91
2022-09-09T09:42:51.048Z,100069.03
2022-09-09T09:46:14.269Z,100068.59
2022-09-09T09:49:17.058Z,100065.78
2022-09-09T09:52:23.448Z,100068.72
2022-09-09T09:55:28.592Z,100068.19
2022-09-09T09:58:35.150Z,100067.47
2022-09-09T10:01:38.182Z,100068.31
2022-09-09T10:04:41.117Z,100067.31
2022-09-09T10:07:46.978Z,100078.44
2022-09-09T10:11:15.320Z,100081.97
2022-09-09T10:14:21.944Z,100090.00
2022-09-09T10:17:29.497Z,100094.91
2022-09-09T10:20:37.340Z,100089.53
2022-09-09T10:23:50.141Z,100098.56
2022-09-09T10:26:55.070Z,100096.28
2022-09-09T10:30:09.969Z,100091.25
2022-09-09T10:33:19.690Z,100092.22
2022-09-09T10:36:23.347Z,100087.28
2022-09-09T10:39:36.043Z,100090.41
2022-09-09T10:42:41.278Z,100081.94
2022-09-09T10:45:52.043Z,100078.13
2022-09-09T10:49:08.215Z,100082.38
2022-09-09T10:52:17.516Z,100075.19
2022-09-09T10:55:21.520Z,100086.84
2022-09-09T10:58:27.075Z,100077.69
2022-09-09T11:01:33.447Z,100077.69
2022-09-09T11:04:39.924Z,100080.50
2022-09-09T11:07:44.933Z,100068.13
2022-09-09T11:10:53.530Z,100079.13
2022-09-09T11:13:59.504Z,100069.56
2022-09-09T11:17:06.087Z,100072.22
2022-09-09T11:20:13.780Z,100073.31
2022-09-09T11:23:19.282Z,100066.72
2022-09-09T11:26:28.119Z,100073.75
2022-09-09T11:29:48.696Z,100077.69
2022-09-09T11:33:10.331Z,100072.16
2022-09-09T11:36:31.202Z,100069.03
2022-09-09T11:39:46.105Z,100076.22
2022-09-09T11:42:50.928Z,100076.94
2022-09-09T11:46:00.237Z,100084.13
2022-09-09T11:49:05.742Z,100078.50
2022-09-09T11:52:15.244Z,100074.28
2022-09-09T11:55:27.581Z,100075.69
2022-09-09T11:58:34.570Z,100070.44
2022-09-09T12:01:39.128Z,100068.91
2022-09-09T12:04:43.504Z,100074.75
2022-09-09T12:07:54.782Z,100076.59
2022-09-09T12:10:58.418Z,100079.78
2022-09-09T12:14:01.901Z,100076.59
2022-09-09T12:17:11.656Z,100084.34
2022-09-09T12:20:16.326Z,100070.56
2022-09-09T12:23:30.316Z,100066.63
2022-09-09T12:26:35.886Z,100060.47
2022-09-09T12:29:43.292Z,100070.09
2022-09-09T12:32:48.978Z,100070.00
2022-09-09T12:35:57.106Z,100073.94
2022-09-09T12:39:11.846Z,100069.38
2022-09-09T12:42:21.568Z,100062.88
2022-09-09T12:45:26.976Z,100067.09
2022-09-09T12:48:33.558Z,100067.09
2022-09-09T12:51:36.711Z,100060.59
2022-09-09T12:54:45.703Z,100070.03
2022-09-09T12:57:51.451Z,100075.66
2022-09-09T13:00:58.596Z,100079.19
2022-09-09T13:04:03.956Z,100066.78
2022-09-09T13:07:08.094Z,100069.16
2022-09-09T13:10:18.093Z,100066.03
2022-09-09T13:13:30.996Z,100062.22
2022-09-09T13:16:38.882Z,100055.91
2022-09-09T13:19:47.397Z,100066.72
2022-09-09T13:22:51.546Z,100065.88
2022-09-09T13:26:00.304Z,100062.50
2022-09-09T13:29:23.580Z,100074.38
2022-09-09T13:32:27.865Z,100073.09
2022-09-09T13:35:31.168Z,100065.47
2022-09-09T13:38:35.735Z,100070.41
2022-09-09T13:41:47.010Z,100077.88
2022-09-09T13:44:50.388Z,100077.16
2022-09-09T13:47:56.284Z,100067.84
2022-09-09T13:51:00.186Z,100081.53
2022-09-09T13:54:02.949Z,100084.78
2022-09-09T13:57:07.619Z,100081.25
2022-09-09T14:00:14.299Z,100071.69
2022-09-09T14:03:17.122Z,100084.19
2022-09-09T14:06:20.555Z,100082.34
2022-09-09T14:09:23.308Z,100094.88
2022-09-09T14:12:27.527Z,100103.09
2022-09-09T14:15:30.288Z,100097.75
2022-09-09T14:18:35.236Z,100090.72
2022-09-09T14:21:38.073Z,100102.53
2022-09-09T14:24:40.803Z,100091.31
2022-09-09T14:27:45.924Z,100095.81
2022-09-09T14:30:48.728Z,100100.75
2022-09-09T14:33:52.084Z,100102.28
2022-09-09T14:37:02.750Z,100101.19
2022-09-09T14:40:06.108Z,100096.16
2022-09-09T14:43:12.742Z,100093.47
2022-09-09T14:46:16.773Z,100095.75
2022-09-09T14:49:19.610Z,100107.44
2022-09-09T14:52:22.380Z,100099.56
2022-09-09T14:55:25.172Z,100098.41
2022-09-09T14:58:32.489Z,100103.66
2022-09-09T15:01:35.635Z,100109.44
2022-09-09T15:04:38.451Z,100113.81
2022-09-09T15:07:41.223Z,100123.56
2022-09-09T15:10:45.878Z,100119.63
2022-09-09T15:13:53.750Z,100129.59
2022-09-09T15:16:56.568Z,100139.06
2022-09-09T15:19:59.386Z,100136.66
2022-09-09T15:23:02.122Z,100127.56
2022-09-09T15:26:05.234Z,100135.47
2022-09-09T15:29:09.648Z,100130.78
2022-09-09T15:32:12.443Z,100135.44
2022-09-09T15:35:15.241Z,100142.88
2022-09-09T15:38:18.523Z,100142.59
2022-09-09T15:41:22.377Z,100145.53
2022-09-09T15:44:27.891Z,100144.13
2022-09-09T15:47:30.682Z,100157.22
2022-09-09T15:50:33.608Z,100143.53
2022-09-09T15:53:36.361Z,100156.09
2022-09-09T15:56:39.111Z,100152.38
2022-09-09T15:59:46.393Z,100164.22
2022-09-09T16:02:49.436Z,100157.41
2022-09-09T16:05:53.600Z,100168.56
2022-09-09T16:08:57.013Z,100170.44
2022-09-09T16:12:01.976Z,100170.72
2022-09-09T16:15:07.307Z,100169.34
2022-09-09T16:18:10.134Z,100176.78
2022-09-09T16:21:15.203Z,100177.81
2022-09-09T16:24:20.119Z,100181.22
2022-09-09T16:27:24.300Z,100178.25
2022-09-09T16:30:28.463Z,100188.03
2022-09-09T16:33:31.736Z,100182.34
2022-09-09T16:36:36.201Z,100185.72
2022-09-09T16:39:38.986Z,100182.94
2022-09-09T16:42:41.835Z,100185.91
2022-09-09T16:45:46.711Z,100187.19
2022-09-09T16:48:50.322Z,100193.69
2022-09-09T16:51:54.287Z,100188.19
2022-09-09T16:54:57.327Z,100191.94
2022-09-09T16:58:01.328Z,100197.00
2022-09-09T17:01:06.343Z,100196.38
2022-09-09T17:04:10.069Z,100202.16
2022-09-09T17:07:12.797Z,100198.50
2022-09-09T17:10:15.866Z,100201.03
2022-09-09T17:13:20.736Z,100208.19
2022-09-09T17:16:25.810Z,100204.34
2022-09-09T17:19:29.302Z,100216.75
2022-09-09T17:22:32.046Z,100215.44
2022-09-09T17:25:35.210Z,100223.00
2022-09-09T17:28:39.567Z,100223.91
2022-09-09T17:31:44.172Z,100225.88
2022-09-09T17:34:48.096Z,100221.03
2022-09-09T17:37:53.675Z,100222.59
2022-09-09T17:41:03.122Z,100228.66
2022-09-09T17:44:06.036Z,100232.16
2022-09-09T17:47:11.095Z,100229.06
2022-09-09T17:50:21.246Z,100228.91
2022-09-09T17:53:24.880Z,100232.78
2022-09-09T17:56:29.351Z,100238.25
2022-09-09T17:59:32.249Z,100246.13
2022-09-09T18:02:36.479Z,100255.94
2022-09-09T18:05:41.771Z,100256.91
2022-09-09T18:08:45.327Z,100245.72
2022-09-09T18:11:49.397Z,100249.63
2022-09-09T18:14:54.243Z,100243.69
2022-09-09T18:18:02.245Z,100241.38
2022-09-09T18:21:07.449Z,100244.16
2022-09-09T18:24:12.159Z,100247.03
2022-09-09T18:27:23.497Z,100250.44
2022-09-09T18:30:26.585Z,100249.84
2022-09-09T18:33:31.981Z,100256.50
2022-09-09T18:36:36.482Z,100245.50
2022-09-09T18:39:39.707Z,100245.63
2022-09-09T18:42:44.167Z,100244.88
2022-09-09T18:45:48.362Z,100242.84
2022-09-09T18:48:59.479Z,100249.31
2022-09-09T18:52:08.657Z,100246.53
2022-09-09T18:55:13.698Z,100245.34
2022-09-09T18:58:17.169Z,100248.38
2022-09-09T19:01:20.506Z,100255.22
2022-09-09T19:04:26.194Z,100258.53
2022-09-09T19:07:29.087Z,100264.56
2022-09-09T19:10:34.269Z,100271.59
2022-09-09T19:13:37.468Z,100279.94
2022-09-09T19:16:40.865Z,100273.59
2022-09-09T19:19:45.811Z,100261.38
2022-09-09T19:22:48.495Z,100259.81
2022-09-09T19:25:51.461Z,100264.53
2022-09-09T19:28:54.747Z,100263.91
2022-09-09T19:32:42.343Z,100266.72
2022-09-09T19:35:23.860Z,100259.09
2022-09-09T19:38:30.015Z,100255.91
2022-09-09T19:41:34.274Z,100260.56
2022-09-09T19:44:37.020Z,100259.03
2022-09-09T19:47:44.122Z,100272.44
2022-09-09T19:50:50.654Z,100287.47
2022-09-09T19:53:56.423Z,100291.59
2022-09-09T19:57:01.060Z,100291.03
2022-09-09T20:00:04.223Z,100295.56
2022-09-09T20:03:19.140Z,100286.06
2022-09-09T20:06:24.910Z,100281.97
2022-09-09T20:09:29.106Z,100285.25
2022-09-09T20:12:31.892Z,100275.34
2022-09-09T20:15:34.728Z,100268.84
2022-09-09T20:18:38.502Z,100275.31
2022-09-09T20:21:47.221Z,100285.69
2022-09-09T20:24:50.520Z,100280.66
2022-09-09T20:27:53.897Z,100284.81
2022-09-09T20:30:56.744Z,100287.31
2022-09-09T20:33:59.968Z,100279.66
2022-09-09T20:37:05.744Z,100284.13
2022-09-09T20:40:09.117Z,100300.69
2022-09-09T20:43:13.092Z,100294.28
2022-09-09T20:46:15.933Z,100266.88
2022-09-09T20:49:19.504Z,100271.97
2022-09-09T20:52:24.063Z,100276.94
2022-09-09T20:55:27.176Z,100289.81
2022-09-09T20:58:33.356Z,100292.09
2022-09-09T21:01:36.517Z,100276.94
2022-09-09T21:04:39.910Z,100287.25
2022-09-09T21:07:44.164Z,100306.97
2022-09-09T21:10:47.044Z,100310.44
2022-09-09T21:13:49.858Z,100321.94
2022-09-09T21:16:52.666Z,100303.66
2022-09-09T21:19:57.290Z,100309.25
2022-09-09T21:23:01.674Z,100315.13
2022-09-09T21:26:05.084Z,100316.53
2022-09-09T21:29:07.989Z,100322.38
2022-09-09T21:32:10.781Z,100332.38
2022-09-09T21:35:13.587Z,100327.97
2022-09-09T21:38:18.834Z,100312.22
2022-09-09T21:41:21.658Z,100314.53
2022-09-09T21:44:24.360Z,100320.22
2022-09-09T21:47:27.168Z,100343.53
2022-09-09T21:50:29.956Z,100330.84
2022-09-09T21:53:34.540Z,100340.38
2022-09-09T21:56:37.267Z,100346.81
2022-09-09T21:59:40.697Z,100340.59
2022-09-09T22:02:43.609Z,100331.59
2022-09-09T22:05:50.708Z,100344.72
2022-09-09T22:08:59.206Z,100340.81
2022-09-09T22:12:02.381Z,100336.28
2022-09-09T22:15:05.452Z,100332.28
2022-09-09T22:18:08.320Z,100335.78
2022-09-09T22:21:12.639Z,100332.91
2022-09-09T22:24:16.926Z,100320.06
2022-09-09T22:27:20.068Z,100326.22
2022-09-09T22:30:22.950Z,100321.19
2022-09-09T22:33:26.631Z,100330.06
2022-09-09T22:36:29.361Z,100338.63
2022-09-09T22:39:33.663Z,100351.78
2022-09-09T22:42:36.625Z,100360.38
2022-09-09T22:45:39.365Z,100358.16
2022-09-09T22:48:43.928Z,100361.06
2022-09-09T22:51:46.699Z,100352.44
2022-09-09T22:54:52.076Z,100345.25
2022-09-09T22:57:55.902Z,100347.16
2022-09-09T23:00:59.170Z,100345.78
2022-09-09T23:04:02.902Z,100341.59
2022-09-09T23:07:06.916Z,100340.47
2022-09-09T23:10:11.953Z,100341.59
2022-09-09T23:13:14.682Z,100349.72
2022-09-09T23:16:18.994Z,100348.47
2022-09-09T23:19:21.972Z,100334.34
2022-09-09T23:22:25.268Z,100345.09
2022-09-09T23:25:29.602Z,100344.09
2022-09-09T23:28:33.224Z,100342.94
2022-09-09T23:31:38.585Z,100356.22
2022-09-09T23:34:41.509Z,100357.28
2022-09-09T23:37:44.282Z,100352.28
2022-09-09T23:40:48.424Z,100353.13
2022-09-09T23:43:52.406Z,100343.13
2022-09-09T23:46:55.168Z,100336.13
2022-09-09T23:49:58.318Z,100341.66
2022-09-09T23:53:02.158Z,100341.34
2022-09-09T23:56:06.447Z,100350.25
2022-09-09T23:59:09.474Z,100369.50
